Essex, Montana
Current Conditions -  °F | °C
As of 1:55 AM on Monday 24 Nov 2014 (Local Time) from KGPI Reporting Station
Overcast Overcast  
Wind Chill: 29°   Ceiling: 6500
Heat Index: 33°   Visibility: 10mi
Dew Point: 31°   Wind: 5mph
Humidity: 92%   Direction: 190°S
Pressure: 30.04"   Gusts: NA
Location:  48.28°N, 113.62°W
Report Text: KGPI 240855Z AUTO 19004KT 10SM FEW045 OVC065 01/M01 A3004 RMK AO2 SLP196 T00061006 53027
Loading
Personal Weather Stations






























Interactive Weather Map New forecast layout! Learn more

10-Day Weather Forecast

Advertisements
Track Severe Weather on mobile